SHF61 EGXC-EGXC

Flight info

Callsign SHF61
Flight time 1h 5m
Altitude 4000
Route DONNA NOOK
Aircraft H47/M-V/N

Departure

Time 2026-05-04 15:44
Airport RAF Coningsby (EGXC)

Arrival

Time 2026-05-04 16:50
Airport RAF Coningsby (EGXC)
Time Latitude Longitude Altitude Speed Heading
2026-05-04 15:28 53.08962 -0.16541 24 ft 0 kts 23°
2026-05-04 15:38 53.08963 -0.16541 24 ft 0 kts 18°
2026-05-04 15:39 53.08964 -0.16540 27 ft 0 kts 14°
2026-05-04 15:42 53.08976 -0.16536 68 ft 9 kts
2026-05-04 15:43 53.09159 -0.16645 188 ft 49 kts 343°
2026-05-04 15:43 53.09387 -0.16036 241 ft 98 kts 82°
2026-05-04 15:43 53.09592 -0.14816 358 ft 121 kts 77°
2026-05-04 15:43 53.09932 -0.13498 452 ft 127 kts 65°
2026-05-04 15:44 53.10467 -0.12276 458 ft 132 kts 56°
2026-05-04 15:44 53.11015 -0.11029 438 ft 136 kts 57°
2026-05-04 15:44 53.11549 -0.09743 617 ft 130 kts 60°
2026-05-04 15:44 53.12023 -0.08497 775 ft 127 kts 62°
2026-05-04 15:45 53.12450 -0.07200 803 ft 131 kts 65°
2026-05-04 15:45 53.12947 -0.05933 826 ft 129 kts 58°
2026-05-04 15:45 53.13513 -0.04826 980 ft 122 kts 51°
2026-05-04 15:45 53.14087 -0.03874 945 ft 111 kts 49°
2026-05-04 15:46 53.14606 -0.02977 887 ft 104 kts 50°
2026-05-04 15:46 53.15061 -0.02174 930 ft 84 kts 55°
2026-05-04 15:46 53.15363 -0.01354 954 ft 92 kts 74°
2026-05-04 15:46 53.15273 -0.00139 963 ft 116 kts 105°
2026-05-04 15:47 53.15100 0.01176 1063 ft 118 kts 106°
2026-05-04 15:47 53.14921 0.02548 1101 ft 125 kts 106°
2026-05-04 15:47 53.14751 0.03976 1079 ft 126 kts 102°
2026-05-04 15:47 53.14640 0.05410 1104 ft 125 kts 100°
2026-05-04 15:48 53.14533 0.06880 1034 ft 130 kts 99°
2026-05-04 15:48 53.14474 0.08363 1038 ft 127 kts 97°
2026-05-04 15:48 53.14359 0.11314 1327 ft 128 kts 98°
2026-05-04 15:49 53.14250 0.12784 1492 ft 128 kts 102°
2026-05-04 15:49 53.14185 0.14267 1630 ft 127 kts 100°
2026-05-04 15:49 53.14108 0.15737 1783 ft 131 kts 103°
2026-05-04 15:49 53.14040 0.17317 1686 ft 139 kts 101°
2026-05-04 15:50 53.13915 0.18913 1580 ft 138 kts 102°
2026-05-04 15:50 53.13787 0.20488 1551 ft 136 kts 102°
2026-05-04 15:50 53.13705 0.22009 1679 ft 129 kts 100°
2026-05-04 15:50 53.13662 0.23470 1835 ft 129 kts 99°
2026-05-04 15:51 53.13657 0.25000 1870 ft 136 kts 94°
2026-05-04 15:51 53.13669 0.26613 1710 ft 141 kts 99°
2026-05-04 15:51 53.13574 0.28150 1022 ft 123 kts 100°
2026-05-04 15:51 53.13455 0.29487 1006 ft 119 kts 101°
2026-05-04 15:52 53.13340 0.30889 1005 ft 128 kts 102°
2026-05-04 15:52 53.13435 0.32317 979 ft 122 kts 73°
2026-05-04 15:52 53.13973 0.33419 991 ft 124 kts 49°
2026-05-04 15:52 53.14596 0.34412 1039 ft 122 kts 43°
2026-05-04 15:53 53.15223 0.35316 1193 ft 113 kts 40°
2026-05-04 15:53 53.15914 0.35846 1383 ft 113 kts 23°
2026-05-04 15:53 53.16697 0.36180 1448 ft 117 kts 11°
2026-05-04 15:53 53.17520 0.36239 1527 ft 120 kts
2026-05-04 15:54 53.18467 0.36173 1675 ft 163 kts 359°
2026-05-04 15:54 53.19662 0.36000 1799 ft 176 kts 358°
2026-05-04 15:54 53.20819 0.35770 1832 ft 152 kts 354°
2026-05-04 15:54 53.21840 0.35913 1685 ft 144 kts 12°
2026-05-04 15:55 53.22804 0.36127 1726 ft 135 kts
2026-05-04 15:55 53.23698 0.36017 1923 ft 125 kts 356°
2026-05-04 15:55 53.24546 0.36183 2104 ft 126 kts 12°
2026-05-04 15:55 53.25415 0.36156 2176 ft 125 kts 352°
2026-05-04 15:56 53.26165 0.35564 2190 ft 112 kts 329°
2026-05-04 15:56 53.26678 0.34629 2228 ft 109 kts 308°
2026-05-04 15:56 53.27099 0.33504 2319 ft 119 kts 309°
2026-05-04 15:56 53.27772 0.32674 2280 ft 125 kts 338°
2026-05-04 15:57 53.28570 0.32161 2302 ft 122 kts 343°
2026-05-04 15:57 53.29370 0.31643 2352 ft 123 kts 343°
2026-05-04 15:57 53.30171 0.31204 2464 ft 119 kts 347°
2026-05-04 15:57 53.30960 0.30874 2627 ft 115 kts 351°
2026-05-04 15:58 53.31741 0.30643 2804 ft 115 kts 356°
2026-05-04 15:58 53.32524 0.30188 2821 ft 125 kts 340°
2026-05-04 15:58 53.33310 0.29489 2663 ft 133 kts 334°
2026-05-04 15:58 53.34102 0.28768 2585 ft 126 kts 336°
2026-05-04 15:59 53.34887 0.28201 2668 ft 121 kts 340°
2026-05-04 15:59 53.35399 0.27838 2730 ft 119 kts 340°
2026-05-04 15:59 53.36415 0.27268 2934 ft 108 kts 350°
2026-05-04 15:59 53.37187 0.27117 2982 ft 126 kts 351°
2026-05-04 16:00 53.38071 0.26645 2658 ft 139 kts 343°
2026-05-04 16:00 53.38957 0.25911 2465 ft 143 kts 335°
2026-05-04 16:00 53.39515 0.25350 2310 ft 140 kts 330°
2026-05-04 16:00 53.40315 0.24341 1987 ft 143 kts 324°
2026-05-04 16:01 53.41356 0.23002 2257 ft 140 kts 327°
2026-05-04 16:01 53.41838 0.22346 2402 ft 133 kts 324°
2026-05-04 16:01 53.42581 0.21416 2386 ft 134 kts 326°
2026-05-04 16:01 53.43623 0.20261 2302 ft 134 kts 331°
2026-05-04 16:02 53.44171 0.19803 2220 ft 128 kts 335°
2026-05-04 16:02 53.45192 0.19058 1768 ft 111 kts 337°
2026-05-04 16:02 53.46617 0.17745 872 ft 172 kts 328°
2026-05-04 16:03 53.47587 0.16320 630 ft 197 kts 317°
2026-05-04 16:03 53.48549 0.14630 190 ft 199 kts 314°
2026-05-04 16:03 53.49300 0.13090 203 ft 134 kts 309°
2026-05-04 16:03 53.49764 0.12050 206 ft 88 kts 309°
2026-05-04 16:04 53.49929 0.11612 70 ft 13 kts 302°
2026-05-04 16:04 53.49948 0.11572 34 ft 0 kts 300°
2026-05-04 16:04 53.49947 0.11566 34 ft 1 kts 300°
2026-05-04 16:05 53.49952 0.11561 34 ft 2 kts 299°
2026-05-04 16:05 53.49955 0.11556 35 ft 1 kts 298°
2026-05-04 16:05 53.49972 0.11564 34 ft 3 kts 177°
2026-05-04 16:06 53.49970 0.11564 34 ft 2 kts 202°
2026-05-04 16:06 53.50125 0.11905 389 ft 2 kts 116°
2026-05-04 16:07 53.50119 0.11891 403 ft 1 kts 115°
2026-05-04 16:07 53.50106 0.11854 447 ft 1 kts 115°
2026-05-04 16:08 53.50102 0.11842 463 ft 1 kts 115°
2026-05-04 16:08 53.50093 0.11824 518 ft 0 kts 114°
2026-05-04 16:09 53.50096 0.11819 549 ft 0 kts 114°
2026-05-04 16:09 53.50097 0.11813 593 ft 0 kts 114°
2026-05-04 16:10 53.50094 0.11818 637 ft 0 kts 114°
2026-05-04 16:11 53.49382 0.14044 692 ft 188 kts 132°
2026-05-04 16:11 53.48363 0.15148 239 ft 155 kts 168°
2026-05-04 16:12 53.47540 0.15507 25 ft 1 kts 154°
2026-05-04 16:12 53.47527 0.15530 23 ft 5 kts 303°
2026-05-04 16:13 53.47528 0.15532 25 ft 2 kts 311°
2026-05-04 16:14 53.47530 0.15530 25 ft 0 kts 306°
2026-05-04 16:14 53.47528 0.15528 25 ft 1 kts 160°
2026-05-04 16:15 53.47520 0.15534 23 ft 1 kts 160°
2026-05-04 16:16 53.47552 0.15696 59 ft 62 kts 67°
2026-05-04 16:16 53.47968 0.17623 420 ft 64 kts 240°
2026-05-04 16:17 53.46922 0.16350 92 ft 96 kts 135°
2026-05-04 16:18 53.45120 0.17669 50 ft 56 kts 26°
2026-05-04 16:18 53.45784 0.17265 43 ft 127 kts 345°
2026-05-04 16:19 53.48166 0.15160 76 ft 35 kts 100°
2026-05-04 16:19 53.48246 0.15360 14 ft 0 kts 143°
2026-05-04 16:20 53.48505 0.15908 279 ft 25 kts 63°
2026-05-04 16:20 53.48219 0.15626 74 ft 6 kts 131°
2026-05-04 16:21 53.47837 0.15695 62 ft 3 kts 29°
2026-05-04 16:22 53.48622 0.13875 128 ft 165 kts 302°
2026-05-04 16:22 53.50977 0.14859 1287 ft 134 kts 36°
2026-05-04 16:23 53.52188 0.19503 672 ft 156 kts 93°
2026-05-04 16:24 53.50149 0.20558 33 ft 118 kts 216°
2026-05-04 16:25 53.49045 0.18573 45 ft 114 kts 236°
2026-05-04 16:26 53.47878 0.16343 9 ft 0 kts 144°
2026-05-04 16:28 53.48436 0.17021 1181 ft 13 kts 242°
2026-05-04 16:28 53.47744 0.16166 479 ft 115 kts 179°
2026-05-04 16:29 53.44425 0.18118 158 ft 113 kts 162°
2026-05-04 16:30 53.42551 0.20332 242 ft 119 kts 153°
2026-05-04 16:31 53.40941 0.21859 404 ft 137 kts 158°
2026-05-04 16:31 53.38278 0.23796 569 ft 138 kts 163°
2026-05-04 16:32 53.35637 0.25914 542 ft 144 kts 161°
2026-05-04 16:33 53.33816 0.27216 485 ft 144 kts 163°
2026-05-04 16:33 53.32073 0.28403 859 ft 130 kts 165°
2026-05-04 16:34 53.30248 0.29771 573 ft 142 kts 160°
2026-05-04 16:34 53.29363 0.30420 704 ft 137 kts 163°
2026-05-04 16:35 53.26735 0.32158 1072 ft 139 kts 154°
2026-05-04 16:35 53.23907 0.33080 638 ft 133 kts 230°
2026-05-04 16:36 53.23272 0.32095 992 ft 121 kts 240°
2026-05-04 16:36 53.22217 0.29541 997 ft 135 kts 245°
2026-05-04 16:37 53.21242 0.26862 1203 ft 136 kts 243°
2026-05-04 16:37 53.20725 0.25431 961 ft 152 kts 243°
2026-05-04 16:37 53.19686 0.22660 1017 ft 135 kts 245°
2026-05-04 16:38 53.18643 0.20146 1296 ft 135 kts 245°
2026-05-04 16:39 53.16560 0.16941 835 ft 136 kts 206°
2026-05-04 16:39 53.15045 0.15643 1590 ft 121 kts 210°
2026-05-04 16:40 53.13388 0.14241 1539 ft 149 kts 214°
2026-05-04 16:40 53.11680 0.12284 1035 ft 148 kts 218°
2026-05-04 16:41 53.10085 0.10360 990 ft 142 kts 218°
2026-05-04 16:41 53.07924 0.07363 1082 ft 131 kts 236°
2026-05-04 16:42 53.06537 0.03504 1703 ft 138 kts 244°
2026-05-04 16:43 53.05642 0.00559 1334 ft 146 kts 250°
2026-05-04 16:43 53.04881 -0.02574 1054 ft 140 kts 250°
2026-05-04 16:43 53.04497 -0.04000 1209 ft 130 kts 249°
2026-05-04 16:44 53.03072 -0.09909 1232 ft 135 kts 256°
2026-05-04 16:45 53.02396 -0.13071 877 ft 144 kts 249°
2026-05-04 16:46 53.01249 -0.17441 983 ft 138 kts 245°
2026-05-04 16:46 53.00537 -0.20256 1288 ft 136 kts 262°
2026-05-04 16:47 53.01518 -0.22902 823 ft 130 kts 338°
2026-05-04 16:47 53.03214 -0.23868 1339 ft 138 kts 341°
2026-05-04 16:48 53.05926 -0.25750 1171 ft 141 kts 351°
2026-05-04 16:48 53.06907 -0.25483 829 ft 147 kts 32°
2026-05-04 16:49 53.08071 -0.22871 785 ft 140 kts 69°
2026-05-04 16:49 53.08621 -0.20075 525 ft 113 kts 75°
2026-05-04 16:50 53.09044 -0.17971 241 ft 73 kts 75°
2026-05-04 16:50 53.09269 -0.16802 53 ft 25 kts 69°
2026-05-04 16:51 53.09419 -0.16081 136 ft 61 kts 73°
2026-05-04 16:51 53.09599 -0.15202 127 ft 69 kts 75°
2026-05-04 16:51 53.09668 -0.14714 30 ft 20 kts 140°
2026-05-04 16:52 53.09475 -0.14886 41 ft 46 kts 252°
2026-05-04 16:52 53.09347 -0.15537 26 ft 44 kts 251°
2026-05-04 16:53 53.09238 -0.16060 25 ft 20 kts 236°
2026-05-04 16:53 53.08870 -0.16367 25 ft 9 kts 206°
2026-05-04 16:54 53.08840 -0.16391 24 ft 0 kts 202°
2026-05-04 16:55 53.08951 -0.16708 22 ft 12 kts 98°
2026-05-04 16:55 53.08959 -0.16549 24 ft 1 kts 31°